Time;durP1;ratioP1;P1;durP2;ratioP2;P2;SDS_P1;SDS_P2;PMS_P1;PMS_P2;Temp;Humidity;BMP_temperature;BMP_pressure;BME280_temperature;BME280_humidity;BME280_pressure;Samples;Min_cycle;Max_cycle;Signal;HPM_P1;HPM_P2
2022/06/14 00:02:51;;;;;;;1999.90;999.90;;;;;;;19.57;51.03;95900.59;5009681;28;20111;-68
2022/06/14 00:05:17;;;;;;;1999.90;999.90;;;;;;;19.55;50.97;95906.34;5009875;28;20487;-67
2022/06/14 00:07:42;;;;;;;1999.90;999.90;;;;;;;19.52;50.93;95898.94;5009672;28;20026;-67
2022/06/14 00:10:08;;;;;;;1999.90;999.90;;;;;;;19.42;51.06;95889.41;5009501;28;20434;-67
2022/06/14 00:12:33;;;;;;;1999.90;999.90;;;;;;;19.47;50.53;95902.66;5009385;28;20528;-67
2022/06/14 00:14:58;;;;;;;1999.90;999.90;;;;;;;19.44;50.48;95902.53;5009838;28;20263;-68
2022/06/14 00:17:24;;;;;;;1999.90;999.90;;;;;;;19.23;50.23;95864.94;5009538;28;20022;-68
2022/06/14 00:19:49;;;;;;;1999.90;999.90;;;;;;;19.48;50.10;95903.44;5009618;28;20049;-67
2022/06/14 00:22:14;;;;;;;1999.90;999.90;;;;;;;19.29;49.87;95876.28;5009228;28;20108;-68
2022/06/14 00:24:39;;;;;;;1999.90;999.90;;;;;;;19.44;49.97;95914.13;5009688;28;20022;-67
2022/06/14 00:27:05;;;;;;;1999.90;999.90;;;;;;;19.37;49.99;95913.16;5009570;28;20030;-67
2022/06/14 00:29:30;;;;;;;1999.90;999.90;;;;;;;19.20;50.05;95893.41;5009596;28;20398;-67
2022/06/14 00:31:56;;;;;;;1999.90;999.90;;;;;;;19.25;49.95;95895.09;5009124;28;20030;-67
2022/06/14 00:34:21;;;;;;;1999.90;999.90;;;;;;;19.07;50.29;95867.56;5009062;28;20033;-67
2022/06/14 00:36:52;;;;;;;1999.90;999.90;;;;;;;19.31;50.44;95906.41;5009326;28;20022;-67
2022/06/14 00:39:18;;;;;;;1999.90;999.90;;;;;;;19.16;50.50;95895.22;5009365;28;20022;-67
2022/06/14 00:41:52;;;;;;;1999.90;999.90;;;;;;;19.20;50.97;95914.19;5008891;28;20033;-68
2022/06/14 00:44:28;;;;;;;1999.90;999.90;;;;;;;19.16;50.88;95906.00;5009472;28;20022;-67
2022/06/14 00:47:14;;;;;;;1999.90;999.90;;;;;;;19.03;51.14;95901.72;5009181;28;20500;-68
2022/06/14 00:49:56;;;;;;;1999.90;999.90;;;;;;;18.97;51.55;95897.69;5009804;28;20030;-67
2022/06/14 00:52:22;;;;;;;1999.90;999.90;;;;;;;18.89;51.63;95904.78;5012469;28;20081;-68
2022/06/14 00:54:53;;;;;;;1999.90;999.90;;;;;;;18.65;52.74;95883.22;5011532;28;20479;-67
2022/06/14 00:57:24;;;;;;;1999.90;999.90;;;;;;;18.60;53.21;95889.59;5012727;28;20157;-68
2022/06/14 01:00:09;;;;;;;1999.90;999.90;;;;;;;18.64;53.94;95900.50;5012615;28;20378;-67
2022/06/14 01:02:40;;;;;;;1999.90;999.90;;;;;;;18.56;53.59;95891.41;5011067;28;20087;-67
2022/06/14 01:05:10;;;;;;;1999.90;999.90;;;;;;;18.63;53.43;95899.72;5011381;28;20779;-68
2022/06/14 01:07:44;;;;;;;1999.90;999.90;;;;;;;18.56;53.46;95891.41;5011419;28;20021;-67
2022/06/14 01:10:18;;;;;;;1999.90;999.90;;;;;;;18.61;53.50;95901.16;5010941;28;20037;-67
2022/06/14 01:12:48;;;;;;;1999.90;999.90;;;;;;;18.62;53.64;95894.66;5012402;28;20048;-67
2022/06/14 01:15:27;;;;;;;1999.90;999.90;;;;;;;18.63;53.62;95902.41;5012350;28;20049;-67
2022/06/14 01:18:05;;;;;;;1999.90;999.90;;;;;;;18.63;53.65;95898.91;5011010;28;20022;-67
2022/06/14 01:20:31;;;;;;;1999.90;999.90;;;;;;;18.62;53.57;95900.81;5011856;28;20439;-67
2022/06/14 01:22:57;;;;;;;1999.90;999.90;;;;;;;18.58;53.50;95889.16;5012206;28;20025;-67
2022/06/14 01:25:25;;;;;;;1999.90;999.90;;;;;;;18.62;53.76;95889.25;5012163;28;20037;-67
2022/06/14 01:27:51;;;;;;;1999.90;999.90;;;;;;;18.55;53.77;95881.75;5010825;28;20034;-67
2022/06/14 01:30:23;;;;;;;1999.90;999.90;;;;;;;18.55;53.86;95887.13;5010412;28;20028;-68
2022/06/14 01:32:56;;;;;;;1999.90;999.90;;;;;;;18.43;54.68;95887.94;5012226;28;20056;-68
2022/06/14 01:35:25;;;;;;;1999.90;999.90;;;;;;;18.40;54.65;95880.50;5011884;28;20033;-69
2022/06/14 01:37:53;;;;;;;1999.90;999.90;;;;;;;18.42;54.75;95886.31;5011896;28;20386;-67
2022/06/14 01:40:33;;;;;;;1999.90;999.90;;;;;;;18.35;54.82;95872.63;5010214;28;20018;-67
2022/06/14 01:43:25;;;;;;;1999.90;999.90;;;;;;;18.37;54.93;95880.38;5011582;28;20091;-67
2022/06/14 01:46:04;;;;;;;1999.90;999.90;;;;;;;18.22;55.40;95872.94;5009608;28;20238;-68
2022/06/14 01:48:35;;;;;;;1999.90;999.90;;;;;;;18.18;55.50;95880.94;5010315;28;20061;-68
2022/06/14 01:54:01;;;;;;;1999.90;999.90;;;;;;;17.99;56.27;95888.75;5011440;28;20112;-66
2022/06/14 01:56:41;;;;;;;1999.90;999.90;;;;;;;17.93;56.68;95883.56;5010328;28;20626;-68
2022/06/14 01:59:34;;;;;;;1999.90;999.90;;;;;;;17.86;56.61;95882.53;5011681;28;20034;-68
2022/06/14 02:02:02;;;;;;;1999.90;999.90;;;;;;;17.75;57.23;95879.47;5011229;28;20022;-67
2022/06/14 02:04:42;;;;;;;1999.90;999.90;;;;;;;17.71;57.30;95875.03;5011522;28;20026;-67
2022/06/14 02:07:25;;;;;;;1999.90;999.90;;;;;;;17.69;57.67;95883.44;5011558;28;20030;-67
2022/06/14 02:10:01;;;;;;;1999.90;999.90;;;;;;;17.66;57.78;95892.19;5009941;28;20030;-67
2022/06/14 02:12:56;;;;;;;1999.90;999.90;;;;;;;17.57;57.86;95880.72;5010772;28;20032;-67
2022/06/14 02:15:33;;;;;;;1999.90;999.90;;;;;;;17.53;57.99;95883.28;5008906;28;20429;-67
2022/06/14 02:18:26;;;;;;;1999.90;999.90;;;;;;;17.48;58.40;95883.47;5010014;28;20030;-67
2022/06/14 02:21:07;;;;;;;1999.90;999.90;;;;;;;17.44;58.35;95884.47;5009488;28;20084;-67
2022/06/14 02:23:39;;;;;;;1999.90;999.90;;;;;;;17.43;58.77;95878.31;5009687;28;20018;-67
2022/06/14 02:26:10;;;;;;;1999.90;999.90;;;;;;;17.30;58.73;95869.41;5009872;28;20112;-67
2022/06/14 02:28:41;;;;;;;1999.90;999.90;;;;;;;17.32;58.89;95877.91;5011053;28;20026;-67
2022/06/14 02:31:14;;;;;;;1999.90;999.90;;;;;;;17.33;58.79;95884.09;5010503;28;20130;-67
2022/06/14 02:33:44;;;;;;;1999.90;999.90;;;;;;;17.29;59.10;95883.16;5010854;28;20014;-67
2022/06/14 02:36:16;;;;;;;1999.90;999.90;;;;;;;17.28;59.14;95887.75;5011000;28;20022;-67
2022/06/14 02:38:50;;;;;;;1999.90;999.90;;;;;;;17.24;59.19;95884.13;5009312;28;20025;-68
2022/06/14 02:41:37;;;;;;;1999.90;999.90;;;;;;;17.21;59.29;95879.44;5008996;28;20026;-67
2022/06/14 02:44:11;;;;;;;1999.90;999.90;;;;;;;17.23;59.25;95884.47;5009306;28;20370;-67
2022/06/14 02:46:44;;;;;;;1999.90;999.90;;;;;;;17.17;59.15;95864.28;5009383;28;20064;-67
2022/06/14 02:49:19;;;;;;;1999.90;999.90;;;;;;;17.19;58.98;95878.97;5009502;28;20053;-67
2022/06/14 02:51:54;;;;;;;1999.90;999.90;;;;;;;17.13;59.20;95874.91;5008762;28;20026;-67
2022/06/14 02:54:37;;;;;;;1999.90;999.90;;;;;;;17.04;59.37;95866.09;5010324;28;20705;-67
2022/06/14 02:57:27;;;;;;;1999.90;999.90;;;;;;;17.08;59.43;95878.56;5009310;28;20137;-67
2022/06/14 03:00:00;;;;;;;1999.90;999.90;;;;;;;17.05;59.11;95873.06;5010189;28;20496;-67
2022/06/14 03:02:33;;;;;;;1999.90;999.90;;;;;;;17.08;59.39;95878.56;5010476;28;20489;-67
2022/06/14 03:05:21;;;;;;;1999.90;999.90;;;;;;;17.07;59.59;95886.97;5010621;28;20090;-67
2022/06/14 03:07:55;;;;;;;1999.90;999.90;;;;;;;16.99;59.18;95877.03;5010357;28;20033;-67
2022/06/14 03:10:20;;;;;;;1999.90;999.90;;;;;;;17.02;59.40;95884.47;5009765;28;20548;-67
2022/06/14 03:13:09;;;;;;;1999.90;999.90;;;;;;;16.99;59.51;95875.13;5008369;28;20034;-67
2022/06/14 03:15:57;;;;;;;1999.90;999.90;;;;;;;16.89;59.58;95880.94;4998260;28;20041;-67
2022/06/14 03:18:37;;;;;;;1999.90;999.90;;;;;;;16.94;60.24;95875.38;5009835;28;20030;-68
2022/06/14 03:21:43;;;;;;;1999.90;999.90;;;;;;;17.03;59.85;95886.03;5009691;28;20034;-67
2022/06/14 03:24:27;;;;;;;1999.90;999.90;;;;;;;17.11;60.02;95880.59;4993179;28;20061;-67
2022/06/14 03:27:28;;;;;;;1999.90;999.90;;;;;;;17.19;59.89;95884.34;5008775;28;20018;-67
2022/06/14 03:29:59;;;;;;;1999.90;999.90;;;;;;;17.37;59.84;95874.25;5009867;28;20488;-67
2022/06/14 03:32:30;;;;;;;;;;;;;;;17.52;59.22;95880.94;5010350;28;20092;-67
2022/06/14 03:35:05;;;;;;;1999.90;999.90;;;;;;;17.60;58.74;95875.44;5009889;28;20076;-67
2022/06/14 03:37:32;;;;;;;1999.90;999.90;;;;;;;17.66;58.45;95868.78;5009975;28;20534;-68
2022/06/14 03:40:05;;;;;;;1999.90;999.90;;;;;;;17.82;58.63;95879.72;5008340;28;20030;-68
2022/06/14 03:42:33;;;;;;;1999.90;999.90;;;;;;;17.84;58.12;95865.94;5008476;28;20026;-67
2022/06/14 03:44:58;;;;;;;1999.90;999.90;;;;;;;17.89;57.87;95852.25;5008539;28;20026;-67
2022/06/14 03:47:27;;;;;;;1999.90;999.90;;;;;;;18.06;57.49;95875.50;5008482;28;20057;-67
2022/06/14 03:50:04;;;;;;;1999.90;999.90;;;;;;;17.97;57.34;95840.63;5009674;28;20037;-67
2022/06/14 03:53:03;;;;;;;1999.90;999.90;;;;;;;18.28;56.95;95874.34;5009047;28;20030;-67
2022/06/14 03:56:00;;;;;;;1999.90;999.90;;;;;;;18.42;56.63;95880.94;5010047;28;20058;-67
2022/06/14 03:58:58;;;;;;;1999.90;999.90;;;;;;;18.54;55.90;95877.50;5009599;28;20069;-67
2022/06/14 04:01:28;;;;;;;1999.90;999.90;;;;;;;18.65;55.45;95878.59;5009259;28;20455;-67
2022/06/14 04:03:56;;;;;;;1999.90;999.90;;;;;;;18.94;54.47;95887.63;5009629;28;20091;-67
2022/06/14 04:06:39;;;;;;;1999.90;999.90;;;;;;;19.22;53.21;95872.25;5009563;28;20486;-67
2022/06/14 04:09:19;;;;;;;1999.90;999.90;;;;;;;19.69;52.60;95876.28;5008242;28;20425;-67
2022/06/14 04:12:02;;;;;;;1999.90;999.90;;;;;;;20.13;51.75;95874.38;5007995;28;20370;-67
2022/06/14 04:14:49;;;;;;;1999.90;999.90;;;;;;;20.41;50.70;95841.09;5009500;28;20029;-67
2022/06/14 04:17:57;;;;;;;1999.90;999.90;;;;;;;21.00;49.37;95884.22;5009417;28;20029;-67
2022/06/14 04:20:34;;;;;;;1999.90;999.90;;;;;;;21.26;48.49;95880.91;5007704;28;20509;-68
2022/06/14 04:23:23;;;;;;;1999.90;999.90;;;;;;;21.52;47.67;95883.03;5009474;28;20018;-68
2022/06/14 04:25:57;;;;;;;1999.90;999.90;;;;;;;21.73;47.33;95876.47;5012253;28;20026;-68
2022/06/14 04:28:53;;;;;;;1999.90;999.90;;;;;;;21.93;46.80;95874.53;5013277;28;20084;-67
2022/06/14 04:31:29;;;;;;;1999.90;999.90;;;;;;;22.04;46.07;95870.09;5013069;28;20068;-67
2022/06/14 04:34:05;;;;;;;1999.90;999.90;;;;;;;22.11;45.67;95854.00;5013240;28;20057;-67
2022/06/14 04:36:47;;;;;;;1999.90;999.90;;;;;;;22.24;45.41;95849.94;5011910;28;20387;-68
2022/06/14 04:39:18;;;;;;;1999.90;999.90;;;;;;;22.54;45.12;95874.47;5011741;28;20044;-68
2022/06/14 04:41:50;;;;;;;1999.90;999.90;;;;;;;22.73;45.28;95876.31;5011156;28;20429;-69
2022/06/14 04:44:18;;;;;;;;;;;;;;;22.81;44.44;95877.19;5011938;28;20029;-68
2022/06/14 04:46:51;;;;;;;1999.90;999.90;;;;;;;22.89;44.08;95870.75;5012810;28;19918;-68
2022/06/14 04:49:36;;;;;;;1999.90;999.90;;;;;;;23.01;43.66;95878.69;5013016;28;20061;-68
2022/06/14 04:52:10;;;;;;;1999.90;999.90;;;;;;;23.09;43.43;95868.72;5012081;28;20109;-68
2022/06/14 04:55:05;;;;;;;1999.90;999.90;;;;;;;23.23;42.70;95881.69;5011134;28;20121;-68
2022/06/14 04:57:35;;;;;;;1999.90;999.90;;;;;;;23.23;42.50;95868.13;5009553;28;20038;-69
2022/06/14 05:00:13;;;;;;;1999.90;999.90;;;;;;;23.38;42.25;95874.53;5012224;28;20410;-68
2022/06/14 05:02:47;;;;;;;1999.90;999.90;;;;;;;23.50;42.45;95871.59;5012346;28;20105;-68
2022/06/14 05:05:22;;;;;;;1999.90;999.90;;;;;;;23.56;42.17;95867.38;5011086;28;20076;-68
2022/06/14 05:07:54;;;;;;;1999.90;999.90;;;;;;;23.59;42.22;95864.69;5010809;28;20026;-68
2022/06/14 05:10:27;;;;;;;1999.90;999.90;;;;;;;23.70;41.59;95870.31;5011805;28;20030;-68
2022/06/14 05:13:08;;;;;;;1999.90;999.90;;;;;;;23.76;40.63;95870.75;5010985;28;20046;-68
2022/06/14 05:15:49;;;;;;;1999.90;999.90;;;;;;;23.67;39.25;95871.03;5011089;28;20084;-67
2022/06/14 05:18:31;;;;;;;1999.90;999.90;;;;;;;23.69;38.54;95854.38;5012172;28;20030;-67
2022/06/14 05:21:13;;;;;;;1999.90;999.90;;;;;;;23.78;38.52;95871.16;5010408;28;20025;-68
2022/06/14 05:23:52;;;;;;;1999.90;999.90;;;;;;;23.86;37.97;95879.03;5012434;28;20056;-68
2022/06/14 05:26:33;;;;;;;1999.90;999.90;;;;;;;23.98;38.91;95877.19;5010767;28;20442;-69
2022/06/14 05:29:22;;;;;;;1999.90;999.90;;;;;;;23.99;38.03;95876.03;5012209;28;20053;-68
2022/06/14 05:32:17;;;;;;;1999.90;999.90;;;;;;;23.89;37.04;95871.28;5010491;28;20131;-68
2022/06/14 05:34:50;;;;;;;1999.90;999.90;;;;;;;23.34;36.60;95879.94;5010266;28;20524;-68
2022/06/14 05:37:31;;;;;;;1999.90;999.90;;;;;;;23.43;35.71;95876.91;5010509;28;20116;-67
2022/06/14 05:40:00;;;;;;;1999.90;999.90;;;;;;;23.52;36.10;95877.41;5011570;28;20030;-68
2022/06/14 05:42:34;;;;;;;1999.90;999.90;;;;;;;23.56;36.17;95880.97;5010380;28;20099;-68
2022/06/14 05:45:01;;;;;;;1999.90;999.90;;;;;;;23.46;35.00;95871.53;5012431;28;20140;-68
2022/06/14 05:47:33;;;;;;;1999.90;999.90;;;;;;;23.65;36.41;95880.69;5010553;28;20037;-68
2022/06/14 05:50:04;;;;;;;1999.90;999.90;;;;;;;23.72;36.52;95878.84;5010205;28;20104;-68
2022/06/14 05:52:43;;;;;;;1999.90;999.90;;;;;;;23.86;36.36;95883.69;5011123;28;20025;-69
2022/06/14 05:55:18;;;;;;;1999.90;999.90;;;;;;;23.70;36.22;95874.94;5010322;28;20030;-68
2022/06/14 05:57:55;;;;;;;1999.90;999.90;;;;;;;23.71;35.24;95885.44;5011304;28;20033;-68
2022/06/14 06:00:39;;;;;;;1999.90;999.90;;;;;;;23.53;35.04;95887.91;5010008;28;20034;-67
2022/06/14 06:03:22;;;;;;;1999.90;999.90;;;;;;;23.70;35.38;95896.66;5011347;28;20489;-68
2022/06/14 06:05:52;;;;;;;1999.90;999.90;;;;;;;23.13;35.18;95893.97;5011615;28;20133;-68
2022/06/14 06:08:41;;;;;;;1999.90;999.90;;;;;;;23.21;35.44;95901.06;5010221;28;20026;-69
2022/06/14 06:11:13;;;;;;;1999.90;999.90;;;;;;;23.34;34.44;95888.84;5009325;28;20351;-68
2022/06/14 06:13:45;;;;;;;1999.90;999.90;;;;;;;23.52;35.05;95891.00;5011441;28;20390;-68
2022/06/14 06:16:15;;;;;;;1999.90;999.90;;;;;;;23.57;33.52;95904.25;5010047;28;20427;-68
2022/06/14 06:18:48;;;;;;;1999.90;999.90;;;;;;;23.59;33.20;95897.28;5010922;28;20038;-68
2022/06/14 06:21:45;;;;;;;1999.90;999.90;;;;;;;23.60;33.97;95893.44;5010599;28;20032;-69
2022/06/14 06:24:27;;;;;;;1999.90;999.90;;;;;;;23.76;34.28;95893.28;5009948;28;20058;-68
2022/06/14 06:27:01;;;;;;;1999.90;999.90;;;;;;;23.73;33.52;95885.06;5009843;28;20026;-68
2022/06/14 06:29:33;;;;;;;1999.90;999.90;;;;;;;23.80;33.96;95894.09;5009521;28;20037;-68
2022/06/14 06:32:00;;;;;;;1999.90;999.90;;;;;;;23.79;34.04;95886.31;5010729;28;20026;-68
2022/06/14 06:34:26;;;;;;;1999.90;999.90;;;;;;;23.76;33.34;95893.28;5010596;28;20037;-68
2022/06/14 06:36:57;;;;;;;1999.90;999.90;;;;;;;23.81;32.95;95897.59;5009772;28;20479;-68
2022/06/14 06:39:41;;;;;;;1999.90;999.90;;;;;;;23.84;32.17;95902.28;5009574;28;20030;-68
2022/06/14 06:42:09;;;;;;;1999.90;999.90;;;;;;;23.93;31.99;95904.72;5010205;28;20072;-68
2022/06/14 06:44:46;;;;;;;1999.90;999.90;;;;;;;23.89;31.31;95898.44;5009151;28;20025;-67
2022/06/14 06:47:28;;;;;;;1999.90;999.90;;;;;;;23.96;32.29;95888.44;5007858;28;20721;-67
2022/06/14 06:50:15;;;;;;;1999.90;999.90;;;;;;;23.97;32.13;95894.66;5008833;28;20033;-67
2022/06/14 06:53:00;;;;;;;1999.90;999.90;;;;;;;24.07;32.82;95894.00;5008954;28;20088;-67
2022/06/14 06:55:38;;;;;;;1999.90;999.90;;;;;;;23.71;32.84;95884.66;5009072;28;20490;-67
2022/06/14 06:58:11;;;;;;;1999.90;999.90;;;;;;;23.72;31.74;95891.66;5010227;28;20029;-67
2022/06/14 07:00:40;;;;;;;1999.90;999.90;;;;;;;23.40;32.55;95891.25;5008511;28;20095;-66
2022/06/14 07:03:21;;;;;;;1999.90;999.90;;;;;;;23.60;32.28;95884.50;5008868;28;20022;-67
2022/06/14 07:05:50;;;;;;;1999.90;999.90;;;;;;;23.64;33.74;95890.00;5009272;28;20022;-67
2022/06/14 07:08:28;;;;;;;1999.90;999.90;;;;;;;23.86;32.99;95884.47;5008719;28;20364;-67
2022/06/14 07:10:55;;;;;;;1999.90;999.90;;;;;;;23.80;31.83;95879.72;5008711;28;20145;-67
2022/06/14 07:13:46;;;;;;;1999.90;999.90;;;;;;;23.89;31.90;95891.06;5010578;28;20444;-67
2022/06/14 07:16:35;;;;;;;1999.90;999.90;;;;;;;23.99;32.15;95884.19;4979131;28;20030;-67
2022/06/14 07:19:36;;;;;;;1999.90;999.90;;;;;;;23.73;32.97;95890.50;5010537;28;20394;-67
2022/06/14 07:22:17;;;;;;;1999.90;999.90;;;;;;;23.36;32.03;95891.19;5010039;28;20139;-67
2022/06/14 07:24:53;;;;;;;1999.90;999.90;;;;;;;23.77;31.85;95881.25;5010320;28;20026;-68
2022/06/14 07:27:23;;;;;;;1999.90;999.90;;;;;;;23.88;31.94;95880.59;5010112;28;20033;-67
2022/06/14 07:29:58;;;;;;;1999.90;999.90;;;;;;;23.75;31.55;95902.56;5010168;28;20042;-67
2022/06/14 07:32:34;;;;;;;1999.90;999.90;;;;;;;23.93;30.96;95889.19;5008572;28;20021;-67
2022/06/14 07:35:00;;;;;;;1999.90;999.90;;;;;;;23.91;31.36;95877.13;5008807;28;20109;-67
2022/06/14 07:37:45;;;;;;;1999.90;999.90;;;;;;;23.80;31.45;95901.44;5010046;28;20419;-67
2022/06/14 07:40:30;;;;;;;1999.90;999.90;;;;;;;24.15;32.00;95890.19;5009766;28;20054;-67
2022/06/14 07:42:58;;;;;;;1999.90;999.90;;;;;;;24.32;32.58;95886.88;5009897;28;20029;-67
2022/06/14 07:45:31;;;;;;;1999.90;999.90;;;;;;;23.81;31.11;95882.06;5008497;28;20477;-67
2022/06/14 07:48:17;;;;;;;1999.90;999.90;;;;;;;24.09;30.79;95883.53;5009960;28;20034;-68
2022/06/14 07:50:48;;;;;;;1999.90;999.90;;;;;;;24.13;31.30;95873.47;5008353;28;20406;-67
2022/06/14 07:53:26;;;;;;;1999.90;999.90;;;;;;;24.29;31.46;95870.50;5009743;28;20740;-67
2022/06/14 07:56:01;;;;;;;1999.90;999.90;;;;;;;24.50;31.25;95878.09;5010007;28;20052;-67
2022/06/14 07:58:35;;;;;;;1999.90;999.90;;;;;;;24.58;30.66;95874.31;5009780;28;20041;-67
2022/06/14 08:01:09;;;;;;;1999.90;999.90;;;;;;;24.58;31.37;95874.31;5012147;28;20036;-67
2022/06/14 08:03:52;;;;;;;1999.90;999.90;;;;;;;24.18;31.86;95872.34;5012512;28;20600;-68
2022/06/14 08:06:27;;;;;;;1999.90;999.90;;;;;;;24.49;31.59;95873.84;5013561;28;20026;-67
2022/06/14 08:09:15;;;;;;;1999.90;999.90;;;;;;;24.31;31.57;95865.47;5013695;28;20018;-67
2022/06/14 08:11:55;;;;;;;1999.90;999.90;;;;;;;24.45;30.46;95873.00;5012164;28;20033;-67
2022/06/14 08:14:43;;;;;;;1999.90;999.90;;;;;;;24.66;30.17;95869.69;5012318;28;20017;-67
2022/06/14 08:17:14;;;;;;;1999.90;999.90;;;;;;;24.66;29.87;95865.03;5013325;28;20037;-67
2022/06/14 08:19:50;;;;;;;1999.90;999.90;;;;;;;24.31;29.96;95860.84;5013272;28;20034;-67
2022/06/14 08:22:23;;;;;;;1999.90;999.90;;;;;;;24.40;29.85;95870.63;5012942;28;20029;-67
2022/06/14 08:24:55;;;;;;;1999.90;999.90;;;;;;;24.17;30.41;95879.72;5013517;28;20030;-67
2022/06/14 08:27:31;;;;;;;1999.90;999.90;;;;;;;24.00;29.97;95851.19;5013595;28;20030;-67
2022/06/14 08:30:08;;;;;;;1999.90;999.90;;;;;;;24.31;28.85;95877.16;5012964;28;20053;-69
2022/06/14 08:32:55;;;;;;;1999.90;999.90;;;;;;;23.65;31.08;95862.50;5012973;28;20683;-67
2022/06/14 08:35:34;;;;;;;1999.90;999.90;;;;;;;24.12;29.96;95871.91;5013419;28;20026;-67
2022/06/14 08:38:11;;;;;;;1999.90;999.90;;;;;;;23.96;29.75;95869.44;5013138;28;20034;-67
2022/06/14 08:40:54;;;;;;;1999.90;999.90;;;;;;;23.49;31.41;95870.00;5011090;28;20033;-67
2022/06/14 08:43:26;;;;;;;1999.90;999.90;;;;;;;23.66;31.86;95879.56;5011633;28;20528;-67
2022/06/14 08:46:25;;;;;;;1999.90;999.90;;;;;;;24.13;30.39;95876.97;5012935;28;20026;-67
2022/06/14 08:49:08;;;;;;;1999.90;999.90;;;;;;;24.17;30.07;95878.97;5011630;28;20100;-67
2022/06/14 08:51:54;;;;;;;1999.90;999.90;;;;;;;24.41;30.66;95864.81;5012482;28;20036;-67
2022/06/14 08:54:45;;;;;;;1999.90;999.90;;;;;;;24.12;30.98;95869.97;5012551;28;20037;-68
2022/06/14 08:57:22;;;;;;;1999.90;999.90;;;;;;;23.70;31.71;95874.94;5012825;28;20022;-67
2022/06/14 09:00:01;;;;;;;1999.90;999.90;;;;;;;23.96;31.45;95865.94;5011164;28;20037;-67
2022/06/14 09:02:54;;;;;;;1999.90;999.90;;;;;;;24.41;29.95;95864.81;5011239;28;20026;-67
2022/06/14 09:05:57;;;;;;;1999.90;999.90;;;;;;;24.32;31.09;95858.91;5012727;28;20100;-68
2022/06/14 09:08:47;;;;;;;1999.90;999.90;;;;;;;24.09;30.66;95857.13;5012505;28;20022;-67
2022/06/14 09:11:21;;;;;;;1999.90;999.90;;;;;;;24.39;30.05;95858.97;5011247;28;20017;-70
2022/06/14 09:14:19;;;;;;;1999.90;999.90;;;;;;;24.65;29.77;95855.31;5011292;28;20034;-67
2022/06/14 09:16:57;;;;;;;1999.90;999.90;;;;;;;23.27;32.24;95858.88;5012282;28;20426;-67
2022/06/14 09:19:44;;;;;;;1999.90;999.90;;;;;;;24.23;30.47;95858.44;5011132;28;20030;-68
2022/06/14 09:22:16;;;;;;;1999.90;999.90;;;;;;;24.49;29.70;95850.13;5010632;28;20026;-68
2022/06/14 09:24:56;;;;;;;1999.90;999.90;;;;;;;24.88;29.61;95853.16;5012346;28;20029;-67
2022/06/14 09:27:49;;;;;;;1999.90;999.90;;;;;;;25.00;30.08;95856.72;5012430;28;20052;-67
2022/06/14 09:30:38;;;;;;;1999.90;999.90;;;;;;;25.42;29.79;95856.97;5011662;28;20033;-67
2022/06/14 09:33:28;;;;;;;1999.90;999.90;;;;;;;24.86;30.07;95858.16;5010760;28;20034;-67
2022/06/14 09:36:37;;;;;;;1999.90;999.90;;;;;;;24.81;29.90;95853.09;5012192;28;20018;-67
2022/06/14 09:39:05;;;;;;;1999.90;999.90;;;;;;;23.65;31.05;95857.06;4978265;28;20406;-67
2022/06/14 09:41:33;;;;;;;1999.90;999.90;;;;;;;24.36;29.72;95848.84;5011416;28;20026;-67
2022/06/14 09:44:20;;;;;;;1999.90;999.90;;;;;;;24.84;29.96;95846.13;5011964;28;20494;-67
2022/06/14 09:46:51;;;;;;;1999.90;999.90;;;;;;;24.65;31.54;95847.16;5010488;28;20078;-67
2022/06/14 09:49:38;;;;;;;1999.90;999.90;;;;;;;25.45;30.33;95855.44;5010461;28;20364;-67
2022/06/14 09:52:28;;;;;;;1999.90;999.90;;;;;;;25.24;29.35;95856.13;5010014;28;20038;-68
2022/06/14 09:55:23;;;;;;;1999.90;999.90;;;;;;;25.43;28.98;95857.75;5010214;28;20087;-67
2022/06/14 09:58:07;;;;;;;1999.90;999.90;;;;;;;25.56;28.57;95856.25;5011635;28;20482;-67
2022/06/14 10:00:52;;;;;;;1999.90;999.90;;;;;;;25.55;28.09;95851.19;5011095;28;20021;-67
2022/06/14 10:03:42;;;;;;;1999.90;999.90;;;;;;;25.87;28.00;95843.16;5011307;28;20057;-67
2022/06/14 10:06:37;;;;;;;1999.90;999.90;;;;;;;25.32;28.45;95852.25;5011415;28;20026;-67
2022/06/14 10:09:04;;;;;;;1999.90;999.90;;;;;;;25.70;28.58;95844.63;5010074;28;20022;-68
2022/06/14 10:11:53;;;;;;;1999.90;999.90;;;;;;;26.02;29.17;95846.69;5009530;28;20372;-68
2022/06/14 10:14:56;;;;;;;1999.90;999.90;;;;;;;25.90;28.44;95836.94;5009833;28;20025;-68
2022/06/14 10:17:54;;;;;;;1999.90;999.90;;;;;;;26.16;27.68;95838.53;5011041;28;20041;-67
2022/06/14 10:20:43;;;;;;;1999.90;999.90;;;;;;;25.47;27.70;95831.31;5009462;28;20041;-68
2022/06/14 10:23:30;;;;;;;1999.90;999.90;;;;;;;25.42;28.70;95840.63;5010067;28;20037;-69
2022/06/14 10:29:54;;;;;;;1999.90;999.90;;;;;;;26.21;28.59;95826.44;4985382;28;20065;-67
2022/06/14 10:32:32;;;;;;;1999.90;999.90;;;;;;;26.17;28.02;95829.19;5010566;28;20018;-68
2022/06/14 10:35:04;;;;;;;1999.90;999.90;;;;;;;26.52;28.22;95825.72;5009345;28;20036;-68
2022/06/14 10:38:20;;;;;;;1999.90;999.90;;;;;;;26.47;26.67;95831.56;5010715;28;20116;-68
2022/06/14 10:40:56;;;;;;;1999.90;999.90;;;;;;;26.16;27.11;95822.97;4984831;28;20034;-68
2022/06/14 10:43:36;;;;;;;1999.90;999.90;;;;;;;25.05;28.26;95820.97;5010673;28;20034;-68
2022/06/14 10:46:17;;;;;;;1999.90;999.90;;;;;;;25.13;29.93;95819.84;5009636;28;20025;-68
2022/06/14 10:48:42;;;;;;;1999.90;999.90;;;;;;;24.98;29.97;95824.44;5009291;28;20095;-68
2022/06/14 10:51:07;;;;;;;1999.90;999.90;;;;;;;25.51;29.00;95828.59;5010291;28;20409;-68
2022/06/14 10:54:11;;;;;;;1999.90;999.90;;;;;;;25.76;29.33;95815.88;5009355;28;20057;-68
2022/06/14 10:57:01;;;;;;;1999.90;999.90;;;;;;;25.57;28.56;95827.06;5007604;28;20430;-68
2022/06/14 11:00:05;;;;;;;1999.90;999.90;;;;;;;25.64;29.23;95827.88;5010558;28;20049;-69
2022/06/14 11:02:46;;;;;;;1999.90;999.90;;;;;;;25.57;30.06;95808.00;5010448;28;20030;-68
2022/06/14 11:05:22;;;;;;;1999.90;999.90;;;;;;;25.70;29.89;95822.84;5009400;28;20033;-68
2022/06/14 11:07:50;;;;;;;1999.90;999.90;;;;;;;26.05;29.56;95824.09;5010426;28;20493;-68
2022/06/14 11:10:25;;;;;;;1999.90;999.90;;;;;;;25.98;28.95;95824.88;5009790;28;20116;-68
2022/06/14 11:13:08;;;;;;;1999.90;999.90;;;;;;;23.98;31.02;95825.56;5009245;28;20026;-69
2022/06/14 11:16:00;;;;;;;1999.90;999.90;;;;;;;24.86;31.16;95806.47;5009269;28;20546;-68
2022/06/14 11:18:53;;;;;;;1999.90;999.90;;;;;;;25.55;29.67;95804.88;5008616;28;20426;-68
2022/06/14 11:21:30;;;;;;;1999.90;999.90;;;;;;;24.83;30.62;95809.97;5009853;28;20471;-69
2022/06/14 11:24:26;;;;;;;1999.90;999.90;;;;;;;25.09;30.98;95814.41;5008770;28;20040;-69
2022/06/14 11:27:03;;;;;;;1999.90;999.90;;;;;;;25.15;30.89;95809.38;5010400;28;20033;-68
2022/06/14 11:29:50;;;;;;;1999.90;999.90;;;;;;;24.80;31.65;95804.50;5008916;28;20069;-68
2022/06/14 11:32:35;;;;;;;1999.90;999.90;;;;;;;24.68;32.06;95797.44;5009210;28;20030;-69
2022/06/14 11:35:25;;;;;;;1999.90;999.90;;;;;;;24.93;30.97;95807.66;5009581;28;20029;-69
2022/06/14 11:38:25;;;;;;;1999.90;999.90;;;;;;;24.15;31.06;95805.91;5008156;28;20030;-68
2022/06/14 11:40:57;;;;;;;1999.90;999.90;;;;;;;25.05;29.50;95796.47;5007551;28;20030;-69
2022/06/14 11:43:32;;;;;;;1999.90;999.90;;;;;;;25.28;28.68;95799.72;5010010;28;20022;-69
2022/06/14 11:46:20;;;;;;;1999.90;999.90;;;;;;;25.29;29.41;95804.00;5009727;28;20026;-69
2022/06/14 11:48:59;;;;;;;1999.90;999.90;;;;;;;24.76;29.84;95779.97;5009780;28;20522;-69
2022/06/14 11:51:52;;;;;;;1999.90;999.90;;;;;;;25.64;28.79;95775.31;5009374;28;20119;-69
2022/06/14 11:54:23;;;;;;;1999.90;999.90;;;;;;;26.23;29.34;95791.41;5007839;28;20506;-68